createdAt,value
2016-11-17T00:00:17.098Z,18.42
2016-11-17T00:01:30.045Z,18.36
2016-11-17T00:02:43.628Z,18.44
2016-11-17T00:03:56.586Z,18.5
2016-11-17T00:05:10.022Z,18.54
2016-11-17T00:06:22.455Z,18.51
2016-11-17T00:07:34.373Z,18.5
2016-11-17T00:08:47.912Z,18.39
2016-11-17T00:10:01.450Z,18.49
2016-11-17T00:11:14.471Z,18.38
2016-11-17T00:12:27.515Z,18.51
2016-11-17T00:13:41.213Z,18.54
2016-11-17T00:14:54.781Z,18.47
2016-11-17T00:16:07.772Z,18.45
2016-11-17T00:17:19.735Z,18.6
2016-11-17T00:18:32.786Z,18.57
2016-11-17T00:19:45.905Z,18.61
2016-11-17T00:21:30.035Z,18.54
2016-11-17T00:22:43.087Z,18.63
2016-11-17T00:23:55.802Z,18.65
2016-11-17T00:25:08.761Z,18.59
2016-11-17T00:26:22.354Z,18.51
2016-11-17T00:27:35.488Z,18.66
2016-11-17T00:28:48.516Z,18.6
2016-11-17T00:30:01.761Z,18.66
2016-11-17T00:31:14.315Z,18.61
2016-11-17T00:32:27.796Z,18.5
2016-11-17T00:33:40.879Z,18.5
2016-11-17T00:34:52.588Z,18.56
2016-11-17T00:36:03.969Z,18.65
2016-11-17T00:37:17.459Z,18.54
2016-11-17T00:38:30.989Z,18.61
2016-11-17T00:39:43.958Z,18.57
2016-11-17T00:40:56.923Z,18.54
2016-11-17T00:42:10.492Z,18.63
2016-11-17T00:43:23.743Z,18.47
2016-11-17T00:44:36.829Z,18.53
2016-11-17T00:45:49.569Z,18.49
2016-11-17T00:47:02.661Z,18.51
2016-11-17T00:48:15.687Z,18.49
2016-11-17T00:49:28.909Z,18.57
2016-11-17T00:50:41.900Z,18.59
2016-11-17T00:51:55.096Z,18.53
2016-11-17T00:53:07.616Z,18.49
2016-11-17T00:54:21.191Z,18.5
2016-11-17T00:55:34.244Z,18.59
2016-11-17T00:56:47.542Z,18.57
2016-11-17T00:57:59.987Z,18.6
2016-11-17T00:59:12.524Z,18.65
2016-11-17T01:00:26.238Z,18.59
2016-11-17T01:01:39.193Z,18.51
2016-11-17T01:02:51.163Z,18.61
2016-11-17T01:04:03.537Z,18.5
2016-11-17T01:05:47.696Z,18.53
2016-11-17T01:07:01.459Z,18.57
2016-11-17T01:08:14.519Z,18.63
2016-11-17T01:09:28.136Z,18.63
2016-11-17T01:10:41.191Z,18.68
2016-11-17T01:11:54.246Z,18.63
2016-11-17T01:13:07.898Z,18.6
2016-11-17T01:14:21.019Z,18.65
2016-11-17T01:15:34.026Z,18.63
2016-11-17T01:16:47.587Z,18.66
2016-11-17T01:18:00.793Z,18.68
2016-11-17T01:19:12.805Z,18.72
2016-11-17T01:20:26.365Z,18.71
2016-11-17T01:21:40.097Z,18.75
2016-11-17T01:22:53.054Z,18.72
2016-11-17T01:24:06.106Z,18.72
2016-11-17T01:25:18.622Z,18.75
2016-11-17T01:26:31.610Z,18.82
2016-11-17T01:27:44.564Z,18.81
2016-11-17T01:28:57.164Z,18.82
2016-11-17T01:30:10.719Z,18.76
2016-11-17T01:31:23.732Z,18.75
2016-11-17T01:32:37.403Z,18.78
2016-11-17T01:33:49.342Z,18.91
2016-11-17T01:35:01.903Z,18.89
2016-11-17T01:36:13.852Z,18.79
2016-11-17T01:37:26.860Z,18.84
2016-11-17T01:38:39.812Z,18.86
2016-11-17T01:39:53.404Z,18.82
2016-11-17T01:41:06.624Z,18.84
2016-11-17T01:42:50.809Z,18.9
2016-11-17T01:44:03.283Z,18.91
2016-11-17T01:45:15.797Z,18.91
2016-11-17T01:46:29.289Z,18.89
2016-11-17T01:47:42.264Z,18.82
2016-11-17T01:48:54.707Z,18.79
2016-11-17T01:50:06.606Z,18.79
2016-11-17T01:51:19.152Z,18.74
2016-11-17T01:52:31.733Z,18.74
2016-11-17T01:53:44.784Z,18.72
2016-11-17T01:54:58.286Z,18.6
2016-11-17T01:56:11.472Z,18.57
2016-11-17T01:57:24.515Z,18.56
2016-11-17T01:58:37.492Z,18.47
2016-11-17T01:59:50.955Z,18.38
2016-11-17T02:01:04.546Z,18.38
2016-11-17T02:02:18.077Z,18.27
2016-11-17T02:03:31.064Z,18.26
2016-11-17T02:04:43.566Z,18.27
2016-11-17T02:05:56.565Z,18.39
2016-11-17T02:07:08.609Z,18.36
2016-11-17T02:08:22.139Z,18.41
2016-11-17T02:09:35.104Z,18.49
2016-11-17T02:10:48.050Z,18.5
2016-11-17T02:12:01.047Z,18.57
2016-11-17T02:13:14.633Z,18.49
2016-11-17T02:14:28.171Z,18.31
2016-11-17T02:15:40.615Z,18.32
2016-11-17T02:16:53.570Z,18.27
2016-11-17T02:18:06.645Z,18.29
2016-11-17T02:19:19.616Z,18.31
2016-11-17T02:20:33.163Z,18.24
2016-11-17T02:21:46.122Z,18.29
2016-11-17T02:22:59.083Z,18.23
2016-11-17T02:24:11.665Z,18.27
2016-11-17T02:25:25.163Z,18.17
2016-11-17T02:26:38.185Z,18.08
2016-11-17T02:27:50.674Z,18.08
2016-11-17T02:29:03.176Z,18.11
2016-11-17T02:30:16.104Z,18.03
2016-11-17T02:31:29.088Z,18.06
2016-11-17T02:32:42.594Z,17.99
2016-11-17T02:35:40.715Z,18.08
2016-11-17T02:36:54.212Z,17.99
2016-11-17T02:38:07.223Z,18.06
2016-11-17T02:39:19.646Z,18.05
2016-11-17T02:40:32.749Z,18.1
2016-11-17T02:41:44.716Z,18.13
2016-11-17T02:42:57.702Z,18.14
2016-11-17T02:44:10.692Z,18.13
2016-11-17T02:45:23.700Z,18.11
2016-11-17T02:46:35.103Z,18.27
2016-11-17T02:47:48.166Z,18.26
2016-11-17T02:49:01.165Z,18.29
2016-11-17T02:50:13.609Z,18.29
2016-11-17T02:51:26.160Z,18.27
2016-11-17T02:52:39.048Z,18.35
2016-11-17T02:53:52.606Z,18.24
2016-11-17T02:55:06.080Z,18.31
2016-11-17T02:56:50.372Z,18.31
2016-11-17T02:58:03.905Z,18.23
2016-11-17T02:59:16.416Z,18.31
2016-11-17T03:00:29.379Z,18.27
2016-11-17T03:01:42.362Z,18.26
2016-11-17T03:02:55.512Z,18.27
2016-11-17T03:04:07.481Z,18.23
2016-11-17T03:05:21.009Z,18.19
2016-11-17T03:06:33.979Z,18.17
2016-11-17T03:07:47.054Z,18.08
2016-11-17T03:08:59.003Z,18.16
2016-11-17T03:10:12.027Z,18.06
2016-11-17T03:11:24.583Z,17.96
2016-11-17T03:12:38.169Z,18.08
2016-11-17T03:13:51.710Z,18.03
2016-11-17T03:15:04.674Z,18.01
2016-11-17T03:16:17.644Z,18.01
2016-11-17T03:17:30.143Z,18.01
2016-11-17T03:18:43.820Z,17.99
2016-11-17T03:19:56.818Z,17.95
2016-11-17T03:21:09.297Z,17.98
2016-11-17T03:22:21.751Z,17.95
2016-11-17T03:23:34.740Z,17.95
2016-11-17T03:24:48.222Z,17.98
2016-11-17T03:26:01.214Z,18.01
2016-11-17T03:27:14.150Z,18.03
2016-11-17T03:28:27.061Z,18.06
2016-11-17T03:29:40.657Z,18.03
2016-11-17T03:30:54.167Z,18.11
2016-11-17T03:32:07.672Z,18.1
2016-11-17T03:33:21.207Z,18.1
2016-11-17T03:34:33.638Z,18.08
2016-11-17T03:35:46.646Z,18.11
2016-11-17T03:36:59.058Z,18.11
2016-11-17T03:38:12.571Z,18.17
2016-11-17T03:39:25.016Z,18.1
2016-11-17T03:40:38.121Z,18.08
2016-11-17T03:41:51.115Z,18.1
2016-11-17T03:43:04.105Z,18.08
2016-11-17T03:44:17.141Z,18.06
2016-11-17T03:45:29.572Z,18.13
2016-11-17T03:46:43.219Z,18.11
2016-11-17T03:47:56.168Z,18.08
2016-11-17T03:49:08.152Z,18.17
2016-11-17T03:50:20.515Z,18.11
2016-11-17T03:51:33.584Z,18.13
2016-11-17T03:52:47.133Z,18.16
2016-11-17T03:54:00.123Z,18.16
2016-11-17T03:55:13.076Z,18.05
2016-11-17T03:56:26.536Z,18.17
2016-11-17T03:57:39.509Z,18.2
2016-11-17T03:58:52.465Z,18.14
2016-11-17T04:00:05.434Z,18.1
2016-11-17T04:01:17.928Z,18.06
2016-11-17T04:02:31.633Z,18.1
2016-11-17T04:03:43.604Z,18.08
2016-11-17T04:04:56.059Z,18.05
2016-11-17T04:06:08.489Z,18.03
2016-11-17T04:07:22.073Z,17.96
2016-11-17T04:08:35.023Z,17.96
2016-11-17T04:09:48.000Z,18.03
2016-11-17T04:11:00.946Z,18.03
2016-11-17T04:12:13.910Z,18.03
2016-11-17T04:13:27.504Z,17.95
2016-11-17T04:14:41.013Z,17.99
2016-11-17T04:15:53.492Z,17.99
2016-11-17T04:17:05.973Z,18.03
2016-11-17T04:18:19.004Z,18.06
2016-11-17T04:19:30.952Z,18.05
2016-11-17T04:20:44.464Z,18.01
2016-11-17T04:21:57.951Z,17.87
2016-11-17T04:23:10.954Z,17.98
2016-11-17T04:24:24.308Z,17.94
2016-11-17T04:25:36.726Z,17.86
2016-11-17T04:26:49.159Z,17.96
2016-11-17T04:28:32.208Z,17.88
2016-11-17T04:29:44.888Z,17.84
2016-11-17T04:30:56.268Z,17.98
2016-11-17T04:32:09.738Z,17.96
2016-11-17T04:33:23.242Z,17.87
2016-11-17T04:34:35.701Z,17.92
2016-11-17T04:35:48.618Z,17.99
2016-11-17T04:37:02.129Z,17.95
2016-11-17T04:38:14.646Z,17.94
2016-11-17T04:39:27.085Z,17.86
2016-11-17T04:40:40.232Z,17.99
2016-11-17T04:41:52.674Z,18.01
2016-11-17T04:43:05.638Z,17.92
2016-11-17T04:44:17.580Z,17.9
2016-11-17T04:45:31.136Z,17.84
2016-11-17T04:46:44.073Z,17.87
2016-11-17T04:47:57.056Z,17.87
2016-11-17T04:49:08.972Z,17.88
2016-11-17T04:50:21.446Z,17.94
2016-11-17T04:51:34.556Z,17.9
2016-11-17T04:52:48.101Z,17.98
2016-11-17T04:54:00.515Z,17.87
2016-11-17T04:55:13.063Z,17.87
2016-11-17T04:56:25.985Z,17.87
2016-11-17T04:57:39.447Z,17.94
2016-11-17T04:58:52.474Z,17.88
2016-11-17T05:00:05.924Z,17.96
2016-11-17T05:01:18.851Z,17.9
2016-11-17T05:02:31.957Z,18.01
2016-11-17T05:03:44.927Z,17.9
2016-11-17T05:04:58.406Z,17.96
2016-11-17T05:06:11.396Z,17.98
2016-11-17T05:07:24.342Z,17.96
2016-11-17T05:08:38.077Z,17.84
2016-11-17T05:09:50.572Z,17.9
2016-11-17T05:11:03.555Z,17.88
2016-11-17T05:12:17.062Z,17.95
2016-11-17T05:13:30.215Z,17.9
2016-11-17T05:14:42.191Z,17.95
2016-11-17T05:15:55.689Z,17.92
2016-11-17T05:17:09.288Z,17.94
2016-11-17T05:18:21.734Z,17.9
2016-11-17T05:19:35.238Z,17.99
2016-11-17T05:20:48.763Z,17.92
2016-11-17T05:22:33.452Z,17.96
2016-11-17T05:23:46.619Z,18.01
2016-11-17T05:24:59.090Z,17.86
2016-11-17T05:26:43.646Z,17.86
2016-11-17T05:28:28.262Z,17.95
2016-11-17T05:29:41.413Z,17.94
2016-11-17T05:30:53.906Z,17.81
2016-11-17T05:32:07.393Z,17.79
2016-11-17T05:33:20.985Z,17.9
2016-11-17T05:34:33.531Z,17.9
2016-11-17T05:35:46.665Z,17.88
2016-11-17T05:36:59.630Z,17.88
2016-11-17T05:38:12.609Z,17.87
2016-11-17T05:39:25.668Z,17.79
2016-11-17T05:40:38.328Z,17.88
2016-11-17T05:41:50.786Z,17.81
2016-11-17T05:43:03.787Z,17.86
2016-11-17T05:44:16.765Z,17.87
2016-11-17T05:45:30.242Z,17.83
2016-11-17T05:46:43.200Z,17.88
2016-11-17T05:47:55.689Z,17.86
2016-11-17T05:49:08.187Z,17.87
2016-11-17T05:50:20.746Z,17.88
2016-11-17T05:51:32.201Z,17.9
2016-11-17T05:52:45.236Z,17.86
2016-11-17T05:53:58.811Z,17.88
2016-11-17T05:55:11.529Z,17.83
2016-11-17T05:56:24.508Z,17.94
2016-11-17T05:57:37.987Z,17.79
2016-11-17T05:58:51.514Z,17.8
2016-11-17T06:00:05.070Z,17.81
2016-11-17T06:01:18.736Z,17.8
2016-11-17T06:02:31.954Z,17.79
2016-11-17T06:03:44.449Z,17.84
2016-11-17T06:04:57.416Z,17.9
2016-11-17T06:06:09.857Z,17.86
2016-11-17T06:07:23.412Z,17.86
2016-11-17T06:08:35.991Z,17.86
2016-11-17T06:09:47.924Z,17.86
2016-11-17T06:11:00.371Z,17.84
2016-11-17T06:12:13.987Z,17.99
2016-11-17T06:13:26.530Z,18.02
2016-11-17T06:14:40.035Z,17.92
2016-11-17T06:15:53.043Z,17.96
2016-11-17T06:17:05.471Z,17.99
2016-11-17T06:18:18.397Z,17.98
2016-11-17T06:19:31.558Z,18.03
2016-11-17T06:20:44.546Z,18.03
2016-11-17T06:21:58.018Z,18.01
2016-11-17T06:23:10.969Z,18.05
2016-11-17T06:24:23.454Z,18.03
2016-11-17T06:25:36.419Z,17.96
2016-11-17T06:26:48.348Z,18.08
2016-11-17T06:28:01.321Z,18.02
2016-11-17T06:29:13.724Z,17.99
2016-11-17T06:30:26.753Z,18.06
2016-11-17T06:31:39.745Z,18.01
2016-11-17T06:32:52.701Z,18.03
2016-11-17T06:34:05.127Z,18.05
2016-11-17T06:35:17.715Z,18.06
2016-11-17T06:36:30.729Z,18.01
2016-11-17T06:37:42.093Z,18.05
2016-11-17T06:38:53.967Z,18.06
2016-11-17T06:40:06.427Z,18.08
2016-11-17T06:41:19.587Z,18.06
2016-11-17T06:42:32.641Z,18.06
2016-11-17T06:43:45.061Z,18.11
2016-11-17T06:44:57.481Z,18.08
2016-11-17T06:46:09.942Z,18.1
2016-11-17T06:47:22.395Z,18.11
2016-11-17T06:48:35.919Z,18.13
2016-11-17T06:49:48.878Z,18.08
2016-11-17T06:51:01.880Z,18.11
2016-11-17T06:52:14.093Z,18.16
2016-11-17T06:53:26.548Z,18.16
2016-11-17T06:54:39.714Z,18.14
2016-11-17T06:55:52.712Z,18.26
2016-11-17T06:57:05.182Z,18.17
2016-11-17T06:58:18.187Z,18.17
2016-11-17T06:59:30.719Z,18.14
2016-11-17T07:00:43.685Z,18.1
2016-11-17T07:01:56.688Z,18.21
2016-11-17T07:03:09.757Z,18.11
2016-11-17T07:06:06.343Z,17.99
2016-11-17T07:07:19.309Z,18.08
2016-11-17T07:08:32.907Z,18.1
2016-11-17T07:09:45.317Z,18.03
2016-11-17T07:10:57.780Z,18.1
2016-11-17T07:12:10.785Z,18.06
2016-11-17T07:13:23.228Z,18.05
2016-11-17T07:14:36.137Z,18.05
2016-11-17T07:15:48.537Z,18.1
2016-11-17T07:17:01.050Z,18.11
2016-11-17T07:18:14.024Z,18.1
2016-11-17T07:19:27.194Z,18.11
2016-11-17T07:20:40.208Z,18.16
2016-11-17T07:21:53.235Z,18.16
2016-11-17T07:23:06.742Z,18.16
2016-11-17T07:24:19.803Z,18.1
2016-11-17T07:25:32.832Z,18.14
2016-11-17T07:26:45.809Z,18.11
2016-11-17T07:27:58.306Z,18.16
2016-11-17T07:29:11.862Z,18.11
2016-11-17T07:30:24.955Z,18.13
2016-11-17T07:31:36.863Z,18.11
2016-11-17T07:32:49.867Z,18.1
2016-11-17T07:34:02.857Z,18.05
2016-11-17T07:35:15.921Z,18.06
2016-11-17T07:36:29.403Z,17.99
2016-11-17T07:37:41.852Z,18.03
2016-11-17T07:38:55.386Z,18.02
2016-11-17T07:40:08.337Z,17.99
2016-11-17T07:41:21.354Z,17.98
2016-11-17T07:42:34.321Z,18.06
2016-11-17T07:43:47.389Z,18.05
2016-11-17T07:45:00.387Z,18.06
2016-11-17T07:46:12.811Z,17.99
2016-11-17T07:47:25.783Z,18.06
2016-11-17T07:48:38.704Z,18.1
2016-11-17T07:49:51.035Z,18.11
2016-11-17T07:51:04.073Z,18.1
2016-11-17T07:52:17.868Z,18.1
2016-11-17T07:53:30.804Z,18.05
2016-11-17T07:54:44.340Z,18.06
2016-11-17T07:55:56.754Z,18.13
2016-11-17T07:57:09.746Z,18.11
2016-11-17T07:58:22.451Z,18.11
2016-11-17T07:59:35.989Z,18.11
2016-11-17T08:00:49.500Z,18.14
2016-11-17T08:02:02.985Z,18.14
2016-11-17T08:03:15.523Z,18.1
2016-11-17T08:04:27.959Z,18.17
2016-11-17T08:05:40.436Z,18.17
2016-11-17T08:06:53.977Z,18.24
2016-11-17T08:08:06.994Z,18.21
2016-11-17T08:09:19.998Z,18.24
2016-11-17T08:10:33.568Z,18.27
2016-11-17T08:12:17.703Z,18.27
2016-11-17T08:13:29.206Z,18.26
2016-11-17T08:14:41.148Z,18.26
2016-11-17T08:15:53.057Z,18.27
2016-11-17T08:17:05.481Z,18.35
2016-11-17T08:18:17.889Z,18.31
2016-11-17T08:19:31.376Z,18.26
2016-11-17T08:20:44.931Z,18.29
2016-11-17T08:21:57.448Z,18.39
2016-11-17T08:23:09.873Z,18.38
2016-11-17T08:24:22.434Z,18.35
2016-11-17T08:26:06.560Z,18.36
2016-11-17T08:27:20.029Z,18.39
2016-11-17T08:28:33.558Z,18.38
2016-11-17T08:29:47.183Z,18.39
2016-11-17T08:31:00.260Z,18.36
2016-11-17T08:32:13.219Z,18.47
2016-11-17T08:33:25.640Z,18.47
2016-11-17T08:34:38.083Z,18.63
2016-11-17T08:35:51.036Z,18.56
2016-11-17T08:37:04.006Z,18.59
2016-11-17T08:38:16.911Z,18.66
2016-11-17T08:39:29.397Z,18.65
2016-11-17T08:40:43.018Z,18.68
2016-11-17T08:41:55.458Z,18.71
2016-11-17T08:43:08.917Z,18.69
2016-11-17T08:44:21.325Z,18.63
2016-11-17T08:45:34.273Z,18.63
2016-11-17T08:46:47.194Z,18.61
2016-11-17T08:48:00.711Z,18.69
2016-11-17T08:49:12.178Z,18.74
2016-11-17T08:50:25.098Z,18.72
2016-11-17T08:51:38.353Z,18.84
2016-11-17T08:52:51.962Z,18.84
2016-11-17T08:54:36.556Z,18.86
2016-11-17T08:55:50.060Z,18.86
2016-11-17T08:57:03.781Z,18.9
2016-11-17T08:58:16.760Z,18.93
2016-11-17T08:59:30.317Z,18.93
2016-11-17T09:01:14.927Z,19
2016-11-17T09:02:28.064Z,19.02
2016-11-17T09:03:40.594Z,19
2016-11-17T09:04:54.104Z,19
2016-11-17T09:06:07.184Z,19.15
2016-11-17T09:07:19.632Z,19.05
2016-11-17T09:08:32.519Z,19.02
2016-11-17T09:10:17.414Z,19.05
2016-11-17T09:11:29.981Z,19.07
2016-11-17T09:12:42.768Z,19.07
2016-11-17T09:13:54.257Z,19.07
2016-11-17T09:15:07.706Z,19.12
2016-11-17T09:16:20.931Z,19.16
2016-11-17T09:17:32.931Z,19.24
2016-11-17T09:18:46.014Z,19.3
2016-11-17T09:19:58.468Z,19.37
2016-11-17T09:21:42.077Z,19.47
2016-11-17T09:22:55.249Z,19.47
2016-11-17T09:24:07.160Z,19.56
2016-11-17T09:25:20.709Z,19.5
2016-11-17T09:26:33.166Z,19.53
2016-11-17T09:27:46.736Z,19.55
2016-11-17T09:28:59.729Z,19.55
2016-11-17T09:30:12.805Z,19.47
2016-11-17T09:31:25.851Z,19.49
2016-11-17T09:32:38.355Z,19.47
2016-11-17T09:33:52.073Z,19.32
2016-11-17T09:35:05.289Z,19.43
2016-11-17T09:36:18.331Z,19.35
2016-11-17T09:37:32.191Z,19.32
2016-11-17T09:38:44.670Z,19.31
2016-11-17T09:39:56.624Z,19.5
2016-11-17T09:41:08.091Z,19.37
2016-11-17T09:42:20.630Z,19.55
2016-11-17T09:43:33.086Z,19.52
2016-11-17T09:44:45.730Z,19.6
2016-11-17T09:45:58.138Z,19.55
2016-11-17T09:47:10.641Z,19.55
2016-11-17T09:48:23.921Z,19.49
2016-11-17T09:49:36.302Z,19.42
2016-11-17T09:50:49.502Z,19.49
2016-11-17T09:52:01.975Z,19.47
2016-11-17T09:53:13.915Z,19.61
2016-11-17T09:54:27.377Z,19.75
2016-11-17T09:55:40.137Z,19.8
2016-11-17T09:56:53.974Z,19.97
2016-11-17T09:58:07.008Z,20.02
2016-11-17T09:59:19.964Z,20.07
2016-11-17T10:00:32.456Z,20.19
2016-11-17T10:01:45.748Z,20.25
2016-11-17T10:02:58.054Z,20.3
2016-11-17T10:04:10.071Z,20.34
2016-11-17T10:05:23.109Z,20.42
2016-11-17T10:06:36.461Z,20.48
2016-11-17T10:07:48.531Z,20.57
2016-11-17T10:09:01.493Z,20.79
2016-11-17T10:10:15.100Z,20.86
2016-11-17T10:11:28.582Z,20.85
2016-11-17T10:12:40.576Z,20.85
2016-11-17T10:13:53.002Z,21.01
2016-11-17T10:15:06.597Z,21.23
2016-11-17T10:16:20.218Z,21.33
2016-11-17T10:17:33.481Z,21.31
2016-11-17T10:18:47.014Z,21.25
2016-11-17T10:20:00.632Z,21.16
2016-11-17T10:21:14.295Z,21.08
2016-11-17T10:22:27.196Z,21.06
2016-11-17T10:23:40.270Z,21.16
2016-11-17T10:24:53.238Z,21.22
2016-11-17T10:26:05.250Z,21.12
2016-11-17T10:27:17.946Z,21.15
2016-11-17T10:28:29.867Z,21.03
2016-11-17T10:29:42.997Z,21
2016-11-17T10:30:55.481Z,20.93
2016-11-17T10:32:08.438Z,20.81
2016-11-17T10:33:21.407Z,20.67
2016-11-17T10:34:33.972Z,20.63
2016-11-17T10:35:46.642Z,20.72
2016-11-17T10:36:58.608Z,20.6
2016-11-17T10:38:11.508Z,20.6
2016-11-17T10:39:25.322Z,20.6
2016-11-17T10:40:39.160Z,20.61
2016-11-17T10:41:52.689Z,20.71
2016-11-17T10:43:05.696Z,20.86
2016-11-17T10:44:19.596Z,21.03
2016-11-17T10:45:33.221Z,21.15
2016-11-17T10:46:46.271Z,21.41
2016-11-17T10:47:57.660Z,21.7
2016-11-17T10:49:10.237Z,21.9
2016-11-17T10:50:23.826Z,21.9
2016-11-17T10:51:36.515Z,21.76
2016-11-17T10:52:50.028Z,21.97
2016-11-17T10:54:03.033Z,21.96
2016-11-17T10:55:15.553Z,21.97
2016-11-17T10:56:29.128Z,21.89
2016-11-17T10:57:43.385Z,21.77
2016-11-17T10:58:56.377Z,21.74
2016-11-17T11:00:08.908Z,21.73
2016-11-17T11:01:22.169Z,21.64
2016-11-17T11:02:35.222Z,21.61
2016-11-17T11:03:48.758Z,21.73
2016-11-17T11:05:01.226Z,21.83
2016-11-17T11:06:14.274Z,22.12
2016-11-17T11:07:27.250Z,22.15
2016-11-17T11:08:40.906Z,21.97
2016-11-17T11:09:53.941Z,22.02
2016-11-17T11:11:06.885Z,21.85
2016-11-17T11:12:19.416Z,22.04
2016-11-17T11:13:32.962Z,22.45
2016-11-17T11:14:46.125Z,22.71
2016-11-17T11:15:59.805Z,22.69
2016-11-17T11:17:12.914Z,22.57
2016-11-17T11:18:25.432Z,22.57
2016-11-17T11:19:37.878Z,22.6
2016-11-17T11:20:52.376Z,22.61
2016-11-17T11:22:06.367Z,22.69
2016-11-17T11:23:19.331Z,22.84
2016-11-17T11:24:31.275Z,23
2016-11-17T11:25:44.821Z,23.25
2016-11-17T11:26:57.773Z,23.4
2016-11-17T11:28:10.989Z,23.7
2016-11-17T11:29:23.465Z,23.52
2016-11-17T11:30:36.526Z,23.4
2016-11-17T11:31:50.329Z,23.25
2016-11-17T11:33:03.873Z,23.15
2016-11-17T11:34:16.009Z,23.12
2016-11-17T11:35:29.544Z,23.24
2016-11-17T11:37:13.205Z,23.22
2016-11-17T11:38:25.269Z,23.26
2016-11-17T11:39:37.887Z,23.15
2016-11-17T11:40:51.459Z,23.28
2016-11-17T11:42:04.616Z,23.34
2016-11-17T11:43:18.142Z,23.07
2016-11-17T11:44:31.696Z,23.12
2016-11-17T11:45:44.182Z,23.14
2016-11-17T11:46:57.713Z,23.32
2016-11-17T11:48:10.202Z,23.56
2016-11-17T11:49:24.027Z,24.24
2016-11-17T11:50:37.096Z,24.52
2016-11-17T11:51:48.480Z,24.92
2016-11-17T11:53:00.915Z,25.27
2016-11-17T11:54:14.483Z,25.44
2016-11-17T11:55:25.855Z,25.66
2016-11-17T11:56:37.808Z,26.22
2016-11-17T11:57:51.349Z,26.76
2016-11-17T11:59:04.990Z,26.69
2016-11-17T12:00:18.082Z,26.49
2016-11-17T12:01:31.638Z,26.19
2016-11-17T12:02:44.645Z,25.89
2016-11-17T12:03:57.628Z,25.66
2016-11-17T12:05:10.618Z,25.64
2016-11-17T12:06:23.919Z,25.64
2016-11-17T12:07:36.962Z,25.79
2016-11-17T12:08:49.005Z,25.54
2016-11-17T12:10:01.491Z,25.19
2016-11-17T12:11:14.114Z,25.07
2016-11-17T12:12:27.095Z,25.23
2016-11-17T12:13:40.077Z,26.19
2016-11-17T12:14:53.101Z,26.94
2016-11-17T12:16:05.654Z,27.34
2016-11-17T12:17:18.104Z,27.72
2016-11-17T12:18:31.105Z,27.65
2016-11-17T12:19:44.624Z,27.65
2016-11-17T12:20:57.683Z,27.84
2016-11-17T12:22:10.860Z,28.2
2016-11-17T12:23:23.350Z,28.05
2016-11-17T12:24:35.364Z,28.06
2016-11-17T12:25:48.375Z,27.96
2016-11-17T12:27:00.857Z,28.23
2016-11-17T12:28:45.082Z,28.31
2016-11-17T12:29:58.629Z,28.11
2016-11-17T12:31:11.629Z,28.05
2016-11-17T12:32:25.370Z,27.94
2016-11-17T12:33:38.363Z,27.74
2016-11-17T12:34:50.838Z,27.64
2016-11-17T12:36:03.843Z,27.87
2016-11-17T12:37:17.962Z,28.09
2016-11-17T12:38:31.750Z,28.06
2016-11-17T12:39:44.322Z,28.03
2016-11-17T12:40:57.506Z,28.61
2016-11-17T12:42:10.482Z,28.8
2016-11-17T12:43:54.813Z,28.98
2016-11-17T12:45:07.264Z,28.95
2016-11-17T12:46:20.270Z,29.45
2016-11-17T12:47:33.307Z,30.29
2016-11-17T12:48:46.344Z,30.88
2016-11-17T12:49:58.767Z,30.91
2016-11-17T12:51:10.183Z,30.6
2016-11-17T12:52:23.210Z,30
2016-11-17T12:53:35.730Z,30.11
2016-11-17T12:54:48.990Z,30.77
2016-11-17T12:56:01.474Z,30.84
2016-11-17T12:57:13.505Z,30.82
2016-11-17T12:58:26.521Z,30.79
2016-11-17T12:59:39.763Z,31.33
2016-11-17T13:00:52.831Z,31.8
2016-11-17T13:02:05.338Z,32.75
2016-11-17T13:03:17.747Z,33.52
2016-11-17T13:04:31.265Z,33.4
2016-11-17T13:05:44.335Z,33.24
2016-11-17T13:06:57.446Z,33.08
2016-11-17T13:08:10.482Z,32.54
2016-11-17T13:09:23.266Z,32.25
2016-11-17T13:10:35.814Z,32.3
2016-11-17T13:11:47.748Z,32.39
2016-11-17T13:13:00.823Z,32.94
2016-11-17T13:14:13.510Z,33.55
2016-11-17T13:15:25.968Z,33.87
2016-11-17T13:16:38.993Z,34.11
2016-11-17T13:17:52.025Z,34.19
2016-11-17T13:19:03.395Z,34.18
2016-11-17T13:20:14.909Z,33.47
2016-11-17T13:21:28.030Z,33.06
2016-11-17T13:22:41.081Z,32.96
2016-11-17T13:23:54.641Z,33.11
2016-11-17T13:25:08.158Z,33.43
2016-11-17T13:26:20.608Z,34.03
2016-11-17T13:27:33.658Z,34.33
2016-11-17T13:28:46.120Z,34.36
2016-11-17T13:29:59.803Z,34.41
2016-11-17T13:31:12.865Z,34.36
2016-11-17T13:32:26.052Z,34.39
2016-11-17T13:33:38.016Z,34.75
2016-11-17T13:34:50.953Z,34.86
2016-11-17T13:36:04.027Z,35.27
2016-11-17T13:37:17.504Z,35.35
2016-11-17T13:38:30.548Z,35.55
2016-11-17T13:39:46.558Z,35.6
2016-11-17T13:41:03.957Z,34.86
2016-11-17T13:42:17.421Z,34.67
2016-11-17T13:43:30.338Z,34.87
2016-11-17T13:44:43.825Z,35.3
2016-11-17T13:45:56.841Z,35.45
2016-11-17T13:47:09.821Z,35.4
2016-11-17T13:48:22.416Z,35.62
2016-11-17T13:49:35.390Z,35.72
2016-11-17T13:50:47.886Z,35.77
2016-11-17T13:52:00.353Z,36.02
2016-11-17T13:53:11.779Z,36.15
2016-11-17T13:54:24.867Z,36.37
2016-11-17T13:55:37.793Z,36.58
2016-11-17T13:56:50.773Z,36.96
2016-11-17T13:58:03.248Z,36.99
2016-11-17T13:59:15.970Z,36.67
2016-11-17T14:00:29.418Z,35.64
2016-11-17T14:01:42.412Z,34.59
2016-11-17T14:02:55.406Z,34
2016-11-17T14:05:52.742Z,34.46
2016-11-17T14:07:05.267Z,34.87
2016-11-17T14:08:17.677Z,34.77
2016-11-17T14:09:30.706Z,35.2
2016-11-17T14:10:43.333Z,35.04
2016-11-17T14:11:56.887Z,34.89
2016-11-17T14:13:09.332Z,35.12
2016-11-17T14:14:21.922Z,35.49
2016-11-17T14:15:34.332Z,35.82
2016-11-17T14:16:47.823Z,36.08
2016-11-17T14:18:00.293Z,36.59
2016-11-17T14:19:13.319Z,36.73
2016-11-17T14:20:26.871Z,36.8
2016-11-17T14:21:39.424Z,37.18
2016-11-17T14:22:51.881Z,37.37
2016-11-17T14:24:05.494Z,37.51
2016-11-17T14:25:18.996Z,37.61
2016-11-17T14:26:32.518Z,37.18
2016-11-17T14:27:45.588Z,37.02
2016-11-17T14:28:58.231Z,37.11
2016-11-17T14:30:11.215Z,37.22
2016-11-17T14:31:23.676Z,37.65
2016-11-17T14:32:35.185Z,38.09
2016-11-17T14:33:48.236Z,38.43
2016-11-17T14:35:00.742Z,38.78
2016-11-17T14:36:13.231Z,39
2016-11-17T14:37:25.637Z,38.76
2016-11-17T14:38:38.130Z,38.27
2016-11-17T14:39:51.658Z,38.37
2016-11-17T14:41:04.750Z,38.78
2016-11-17T14:42:18.332Z,38.93
2016-11-17T14:43:30.678Z,38.62
2016-11-17T14:44:45.879Z,38.66
2016-11-17T14:46:00.411Z,38.05
2016-11-17T14:47:13.456Z,37.98
2016-11-17T14:48:26.788Z,38.13
2016-11-17T14:49:39.808Z,38.1
2016-11-17T14:50:53.359Z,38.25
2016-11-17T14:52:06.296Z,38.56
2016-11-17T14:53:18.809Z,39.12
2016-11-17T14:54:32.098Z,39.38
2016-11-17T14:55:44.624Z,39.52
2016-11-17T14:56:57.599Z,39.59
2016-11-17T14:58:10.076Z,39.65
2016-11-17T14:59:23.688Z,39.64
2016-11-17T15:00:37.243Z,38.46
2016-11-17T15:01:50.243Z,37.17
2016-11-17T15:03:03.803Z,36.39
2016-11-17T15:04:17.027Z,36.01
2016-11-17T15:05:29.593Z,36.44
2016-11-17T15:06:42.087Z,36.93
2016-11-17T15:07:55.140Z,36.53
2016-11-17T15:09:08.117Z,36.24
2016-11-17T15:10:21.177Z,36.05
2016-11-17T15:11:34.255Z,35.82
2016-11-17T15:12:47.263Z,35.3
2016-11-17T15:14:00.247Z,34.78
2016-11-17T15:15:13.378Z,34.49
2016-11-17T15:16:26.352Z,34.39
2016-11-17T15:17:38.258Z,35.15
2016-11-17T15:18:50.680Z,35.49
2016-11-17T15:20:03.683Z,35.64
2016-11-17T15:21:16.161Z,35.38
2016-11-17T15:22:28.756Z,35.47
2016-11-17T15:23:41.320Z,36.04
2016-11-17T15:24:53.746Z,36.41
2016-11-17T15:26:06.293Z,36.62
2016-11-17T15:27:19.361Z,36.97
2016-11-17T15:28:32.376Z,37.94
2016-11-17T15:29:45.394Z,38.7
2016-11-17T15:30:58.990Z,39.41
2016-11-17T15:32:12.031Z,39.86
2016-11-17T15:33:24.494Z,39.87
2016-11-17T15:34:37.467Z,39.2
2016-11-17T15:35:50.541Z,37.88
2016-11-17T15:37:03.034Z,36.37
2016-11-17T15:38:16.631Z,35.31
2016-11-17T15:39:29.616Z,35.4
2016-11-17T15:40:42.090Z,35.72
2016-11-17T15:41:55.621Z,35.53
2016-11-17T15:43:09.394Z,35.33
2016-11-17T15:44:22.488Z,35.05
2016-11-17T15:45:35.984Z,35.31
2016-11-17T15:46:49.481Z,36.15
2016-11-17T15:48:03.050Z,36.21
2016-11-17T15:49:15.972Z,36.7
2016-11-17T15:50:29.499Z,36.8
2016-11-17T15:51:41.979Z,36.75
2016-11-17T15:52:54.482Z,37.04
2016-11-17T15:54:07.460Z,37.15
2016-11-17T15:55:20.895Z,37.75
2016-11-17T15:56:34.498Z,38.25
2016-11-17T15:57:46.952Z,38.99